Time;durP1;ratioP1;P1;durP2;ratioP2;P2;SDS_P1;SDS_P2;PMS_P1;PMS_P2;Temp;Humidity;BMP_temperature;BMP_pressure;BME280_temperature;BME280_humidity;BME280_pressure;Samples;Min_cycle;Max_cycle;Signal;HPM_P1;HPM_P2
2022/11/23 00:01:13;;;;;;;3.80;1.83;;;;;;;2.02;100.00;95966.06;5035213;28;20463;-56
2022/11/23 00:03:39;;;;;;;4.60;1.75;;;;;;;2.10;100.00;95974.78;5026411;28;20073;-57
2022/11/23 00:06:06;;;;;;;7.43;2.17;;;;;;;2.08;100.00;95967.81;5037142;28;20049;-56
2022/11/23 00:08:33;;;;;;;7.25;2.30;;;;;;;2.12;100.00;95968.16;5042608;28;20116;-57
2022/11/23 00:10:59;;;;;;;6.50;1.88;;;;;;;2.16;100.00;95966.63;5035449;28;20140;-57
2022/11/23 00:13:26;;;;;;;6.63;2.08;;;;;;;2.20;100.00;95970.47;5044262;28;20045;-58
2022/11/23 00:15:53;;;;;;;6.45;2.47;;;;;;;2.29;100.00;95962.91;5037090;28;20084;-58
2022/11/23 00:18:19;;;;;;;6.10;2.05;;;;;;;2.42;100.00;95963.69;5027229;28;20521;-57
2022/11/23 00:20:45;;;;;;;8.15;1.80;;;;;;;2.52;100.00;95963.94;5045375;28;20132;-58
2022/11/23 00:23:12;;;;;;;6.78;1.95;;;;;;;2.53;100.00;95962.06;5029379;28;20059;-55
2022/11/23 00:25:38;;;;;;;8.20;2.13;;;;;;;2.59;100.00;95959.25;5026609;28;20088;-58
2022/11/23 00:28:05;;;;;;;5.45;2.03;;;;;;;2.59;100.00;95969.94;5039846;28;20087;-56
2022/11/23 00:30:31;;;;;;;5.53;1.70;;;;;;;2.63;100.00;95964.97;5036250;28;20091;-58
2022/11/23 00:32:58;;;;;;;6.93;1.80;;;;;;;2.64;100.00;95961.22;5024960;28;20509;-56
2022/11/23 00:35:24;;;;;;;5.82;1.98;;;;;;;2.59;100.00;95964.59;5030011;28;20044;-58
2022/11/23 00:37:51;;;;;;;3.80;1.77;;;;;;;2.62;100.00;95973.22;5041653;28;20056;-58
2022/11/23 00:40:18;;;;;;;6.13;1.67;;;;;;;2.66;100.00;95971.69;5026060;28;20395;-58
2022/11/23 00:42:44;;;;;;;7.13;1.85;;;;;;;2.57;100.00;95963.22;5034404;28;20047;-58
2022/11/23 00:45:11;;;;;;;5.07;2.03;;;;;;;2.46;100.00;95970.19;5042294;28;20053;-55
2022/11/23 00:47:37;;;;;;;6.57;1.83;;;;;;;2.28;100.00;95966.63;5024755;28;20065;-58
2022/11/23 00:50:04;;;;;;;5.85;2.10;;;;;;;2.21;100.00;95966.75;5045836;28;20513;-58
2022/11/23 00:52:30;;;;;;;7.60;1.90;;;;;;;2.21;100.00;95964.06;5044839;28;20595;-58
2022/11/23 00:54:57;;;;;;;4.22;1.58;;;;;;;2.32;100.00;95962.44;5025283;28;20041;-58
2022/11/23 00:57:23;;;;;;;5.78;1.70;;;;;;;2.44;100.00;95954.41;5025538;28;20045;-58
2022/11/23 00:59:50;;;;;;;6.15;1.83;;;;;;;2.51;100.00;95959.63;5043148;28;20128;-57
2022/11/23 01:02:16;;;;;;;5.55;1.42;;;;;;;2.43;100.00;95952.78;5025145;28;20103;-59
2022/11/23 01:04:43;;;;;;;4.95;1.58;;;;;;;2.37;100.00;95943.06;5024856;28;20096;-57
2022/11/23 01:07:09;;;;;;;6.00;1.83;;;;;;;2.09;100.00;95941.91;5022652;28;20063;-56
2022/11/23 01:09:37;;;;;;;6.00;1.55;;;;;;;1.96;100.00;95940.28;5029134;28;20416;-55
2022/11/23 01:12:05;;;;;;;4.57;1.48;;;;;;;1.98;100.00;95950.75;5027641;28;20265;-57
2022/11/23 01:14:31;;;;;;;7.45;2.20;;;;;;;1.99;100.00;95950.50;5029674;28;20037;-54
2022/11/23 01:16:58;;;;;;;4.93;1.85;;;;;;;1.91;100.00;95946.31;5028879;28;20391;-57
2022/11/23 01:19:24;;;;;;;7.75;1.98;;;;;;;1.85;100.00;95949.94;5034908;28;20336;-56
2022/11/23 01:21:51;;;;;;;6.32;1.80;;;;;;;1.96;100.00;95948.31;5028627;28;20046;-56
2022/11/23 01:24:22;;;;;;;3.70;1.50;;;;;;;1.94;100.00;95953.06;5028534;28;20559;-57
2022/11/23 01:26:52;;;;;;;4.07;1.00;;;;;;;2.01;100.00;95952.94;5043554;28;20120;-57
2022/11/23 01:29:20;;;;;;;5.17;1.40;;;;;;;1.99;100.00;95950.50;5048383;28;20079;-58
2022/11/23 01:31:47;;;;;;;3.83;1.13;;;;;;;1.77;100.00;95960.94;5034716;28;20046;-56
2022/11/23 01:34:15;;;;;;;4.72;1.55;;;;;;;1.40;100.00;95967.25;5029040;28;20042;-57
2022/11/23 01:36:42;;;;;;;3.67;1.50;;;;;;;1.21;100.00;95964.63;5042213;28;20564;-59
2022/11/23 01:39:09;;;;;;;4.40;1.40;;;;;;;1.04;100.00;95970.59;5049107;28;20072;-59
2022/11/23 01:41:41;;;;;;;6.65;1.42;;;;;;;1.03;100.00;95970.81;5034623;28;20052;-55
2022/11/23 01:44:31;;;;;;;5.90;1.50;;;;;;;1.14;100.00;95974.59;5042889;28;20126;-55
2022/11/23 01:47:04;;;;;;;12.60;2.30;;;;;;;1.10;100.00;95974.22;5046339;28;20516;-58
2022/11/23 01:49:51;;;;;;;4.63;1.52;;;;;;;1.05;100.00;95971.41;5048166;28;20049;-58
2022/11/23 01:52:25;;;;;;;5.30;1.73;;;;;;;0.94;100.00;95977.50;5029751;28;20046;-56
2022/11/23 01:54:57;;;;;;;4.75;1.58;;;;;;;0.88;100.00;95977.38;5044808;28;20049;-57
2022/11/23 01:57:39;;;;;;;4.82;1.88;;;;;;;0.81;100.00;95986.50;5046929;28;20098;-57
2022/11/23 02:00:07;;;;;;;4.20;1.60;;;;;;;0.55;100.00;95978.56;5047544;28;20045;-58
2022/11/23 02:02:46;;;;;;;5.82;2.10;;;;;;;0.34;100.00;95977.97;5028765;28;20059;-57
2022/11/23 02:05:17;;;;;;;5.07;2.00;;;;;;;0.27;100.00;95987.06;5027506;28;20046;-58
2022/11/23 02:07:46;;;;;;;4.97;1.58;;;;;;;0.36;100.00;95993.72;5029114;28;20803;-58
2022/11/23 02:10:14;;;;;;;4.88;1.33;;;;;;;0.50;100.00;95995.25;5043779;28;20212;-58
2022/11/23 02:12:41;;;;;;;7.45;2.33;;;;;;;0.59;100.00;95992.28;5046838;28;20056;-56
2022/11/23 02:15:11;;;;;;;4.57;1.20;;;;;;;0.63;100.00;95996.94;5045886;28;20037;-56
2022/11/23 02:17:39;;;;;;;3.70;1.35;;;;;;;0.70;100.00;96001.38;5048035;28;20537;-54
2022/11/23 02:20:16;;;;;;;3.55;1.23;;;;;;;0.65;100.00;95994.03;5049024;28;20075;-58
2022/11/23 02:22:56;;;;;;;3.33;1.33;;;;;;;0.92;100.00;96004.38;5026643;28;20125;-57
2022/11/23 02:25:28;;;;;;;4.70;1.55;;;;;;;0.86;100.00;96003.44;5028238;28;20120;-56
2022/11/23 02:27:55;;;;;;;3.25;1.40;;;;;;;0.42;100.00;96000.84;5045886;28;20077;-58
2022/11/23 02:30:22;;;;;;;6.30;1.70;;;;;;;0.31;100.00;95990.91;5037576;28;20037;-58
2022/11/23 02:32:52;;;;;;;3.75;1.42;;;;;;;0.34;100.00;96001.94;5027470;28;20080;-56
2022/11/23 02:35:18;;;;;;;6.57;1.40;;;;;;;0.33;100.00;96000.31;5028050;28;20460;-57
2022/11/23 02:37:45;;;;;;;3.00;1.70;;;;;;;0.38;100.00;96005.78;5030762;28;20044;-56
2022/11/23 02:40:34;;;;;;;3.22;1.05;;;;;;;0.41;100.00;96001.91;5036364;28;20517;-56
2022/11/23 02:43:02;;;;;;;3.53;1.25;;;;;;;0.15;100.00;96011.78;5028860;28;20080;-57
2022/11/23 02:45:49;;;;;;;1.83;1.08;;;;;;;0.13;100.00;96000.53;5026491;28;20045;-56
2022/11/23 02:48:17;;;;;;;2.45;1.35;;;;;;;0.21;100.00;96005.56;5031569;28;20041;-58
2022/11/23 02:50:44;;;;;;;3.63;1.05;;;;;;;0.32;100.00;96004.03;5046071;28;20048;-58
2022/11/23 02:53:12;;;;;;;3.63;1.20;;;;;;;0.18;100.00;95997.22;5042664;28;20056;-59
2022/11/23 02:55:38;;;;;;;6.57;1.52;;;;;;;0.03;100.00;95995.69;5031346;28;20057;-57
2022/11/23 02:58:05;;;;;;;5.35;1.35;;;;;;;0.02;100.00;96009.22;5029003;28;20037;-58
2022/11/23 03:00:32;;;;;;;4.10;1.90;;;;;;;0.24;100.00;96015.78;5046879;28;20040;-58
2022/11/23 03:03:00;;;;;;;5.18;1.42;;;;;;;0.61;100.00;96014.16;5042527;28;20292;-58
2022/11/23 03:05:27;;;;;;;5.60;1.75;;;;;;;0.90;100.00;96007.28;5027762;28;20112;-58
2022/11/23 03:07:54;;;;;;;4.95;1.52;;;;;;;1.07;100.00;95996.00;5027670;28;20095;-58
2022/11/23 03:10:20;;;;;;;5.22;1.63;;;;;;;1.20;100.00;95995.00;5038102;28;20739;-57
2022/11/23 03:12:53;;;;;;;5.40;1.52;;;;;;;1.28;100.00;95997.38;5034161;28;20042;-58
2022/11/23 03:15:20;;;;;;;5.75;2.33;;;;;;;1.31;100.00;95998.75;5041451;28;20147;-58
2022/11/23 03:17:46;;;;;;;9.23;1.85;;;;;;;1.26;100.00;95999.44;5028084;28;20430;-57
2022/11/23 03:20:15;;;;;;;6.53;2.08;;;;;;;1.25;100.00;95997.81;5046132;28;20044;-55
2022/11/23 03:22:44;;;;;;;6.47;1.30;;;;;;;1.27;100.00;95995.75;5041061;28;20045;-58
2022/11/23 03:25:13;;;;;;;6.70;1.70;;;;;;;1.31;100.00;95990.75;5026164;28;20042;-57
2022/11/23 03:27:42;;;;;;;4.43;1.40;;;;;;;1.33;100.00;95998.53;5045576;28;20136;-58
2022/11/23 03:30:09;;;;;;;7.40;1.80;;;;;;;1.23;100.00;96004.41;5045507;28;20052;-58
2022/11/23 03:32:36;;;;;;;9.45;1.70;;;;;;;1.15;100.00;96011.66;5026632;28;20046;-57
2022/11/23 03:35:04;;;;;;;4.60;1.55;;;;;;;1.03;100.00;96011.63;5044422;28;20426;-56
2022/11/23 03:37:33;;;;;;;5.43;1.52;;;;;;;0.98;100.00;96010.66;5044268;28;20037;-57
2022/11/23 03:40:00;;;;;;;4.75;1.60;;;;;;;1.01;100.00;96013.72;5026097;28;20049;-58
2022/11/23 03:42:55;;;;;;;4.55;1.88;;;;;;;1.10;100.00;96016.06;5026299;28;20136;-57
2022/11/23 03:45:22;;;;;;;3.00;1.50;;;;;;;1.13;100.00;96003.09;5029057;28;20084;-57
2022/11/23 03:47:49;;;;;;;8.77;2.25;;;;;;;1.14;100.00;95999.38;5026928;28;20110;-58
2022/11/23 03:50:16;;;;;;;5.40;2.00;;;;;;;1.25;100.00;96003.13;5044495;28;20048;-56
2022/11/23 03:52:43;;;;;;;6.68;1.67;;;;;;;1.35;100.00;95991.94;5025342;28;20079;-57
2022/11/23 03:55:13;;;;;;;4.65;1.50;;;;;;;1.57;100.00;95991.41;5043157;28;20044;-57
2022/11/23 03:57:40;;;;;;;3.78;1.33;;;;;;;1.58;100.00;95986.91;5041512;28;20520;-55
2022/11/23 04:00:08;;;;;;;4.38;1.75;;;;;;;1.58;100.00;95986.91;5025291;28;20041;-57
2022/11/23 04:02:38;;;;;;;7.50;1.70;;;;;;;1.61;100.00;95986.41;5044879;28;20107;-55
2022/11/23 04:05:10;;;;;;;2.83;1.40;;;;;;;1.58;100.00;95981.56;5045540;28;20064;-58
2022/11/23 04:07:57;;;;;;;5.03;1.63;;;;;;;1.45;100.00;95979.88;5025204;28;20057;-56
2022/11/23 04:10:25;;;;;;;4.22;1.70;;;;;;;1.46;100.00;95979.66;5044097;28;20041;-57
2022/11/23 04:13:01;;;;;;;9.77;1.95;;;;;;;1.30;100.00;95978.47;5044836;28;20534;-54
2022/11/23 04:15:28;;;;;;;5.78;1.67;;;;;;;1.35;100.00;95980.44;5039428;28;20398;-55
2022/11/23 04:17:56;;;;;;;5.82;1.35;;;;;;;1.35;100.00;95975.94;5045143;28;20128;-55
2022/11/23 04:20:22;;;;;;;5.05;2.00;;;;;;;1.40;100.00;95976.06;5045222;28;20069;-58
2022/11/23 04:22:49;;;;;;;7.03;2.25;;;;;;;1.27;100.00;95977.06;5025749;28;20525;-57
2022/11/23 04:25:16;;;;;;;5.15;1.80;;;;;;;1.30;100.00;95981.94;5025275;28;20509;-58
2022/11/23 04:27:44;;;;;;;5.85;1.60;;;;;;;1.41;100.00;95974.22;5024215;28;20560;-58
2022/11/23 04:30:13;;;;;;;4.88;1.85;;;;;;;1.37;100.00;95975.72;5024605;28;20132;-56
2022/11/23 04:32:39;;;;;;;4.43;1.70;;;;;;;1.22;100.00;95970.78;5024352;28;20140;-57
2022/11/23 04:35:06;;;;;;;3.65;1.83;;;;;;;1.16;100.00;95976.00;5026296;28;20037;-56
2022/11/23 04:37:33;;;;;;;8.85;2.35;;;;;;;1.16;100.00;95972.50;5024993;28;20037;-58
2022/11/23 04:40:00;;;;;;;4.18;1.83;;;;;;;1.15;100.00;95977.00;5024606;28;20076;-58
2022/11/23 04:42:53;;;;;;;6.55;1.73;;;;;;;1.28;100.00;95972.53;5025333;28;20509;-57
2022/11/23 04:45:26;;;;;;;5.57;2.20;;;;;;;1.37;100.00;95967.69;5023278;28;20076;-58
2022/11/23 04:47:55;;;;;;;6.28;2.08;;;;;;;1.40;100.00;95967.25;5024910;28;20073;-56
2022/11/23 04:50:23;;;;;;;6.18;1.70;;;;;;;1.45;100.00;95975.38;5037208;28;20087;-59
2022/11/23 04:52:53;;;;;;;6.70;2.17;;;;;;;1.56;100.00;95969.25;5024383;28;20110;-57
2022/11/23 04:55:25;;;;;;;7.28;2.35;;;;;;;1.56;100.00;95977.25;5024479;28;20087;-56
2022/11/23 04:57:56;;;;;;;5.95;1.80;;;;;;;1.62;100.00;95962.19;5024400;28;20463;-57
2022/11/23 05:00:27;;;;;;;4.93;1.65;;;;;;;1.78;100.00;95970.56;5024251;28;20431;-57
2022/11/23 05:02:58;;;;;;;4.88;1.40;;;;;;;1.91;100.00;95970.34;5023929;28;20065;-57
2022/11/23 05:05:27;;;;;;;7.18;1.58;;;;;;;1.86;100.00;95967.56;5024593;28;20521;-57
2022/11/23 05:07:56;;;;;;;7.20;2.28;;;;;;;1.88;100.00;95970.78;5024573;28;20049;-56
2022/11/23 05:10:27;;;;;;;5.20;1.33;;;;;;;1.92;100.00;95971.97;5025618;28;20046;-57
2022/11/23 05:12:58;;;;;;;3.83;1.77;;;;;;;1.94;100.00;95966.41;5025258;28;20148;-57
2022/11/23 05:15:26;;;;;;;4.28;1.67;;;;;;;1.99;100.00;95968.38;5027574;28;20199;-56
2022/11/23 05:17:53;;;;;;;4.85;1.80;;;;;;;2.06;100.00;95966.38;5024367;28;20068;-57
2022/11/23 05:20:24;;;;;;;5.45;1.80;;;;;;;2.04;100.00;95966.66;5032193;28;20312;-56
2022/11/23 05:22:51;;;;;;;5.88;1.58;;;;;;;2.07;100.00;95960.81;5024361;28;20053;-58
2022/11/23 05:25:21;;;;;;;3.97;1.52;;;;;;;2.10;100.00;95967.56;5032960;28;20049;-57
2022/11/23 05:27:55;;;;;;;7.57;2.38;;;;;;;2.12;100.00;95967.31;5036981;28;20550;-55
2022/11/23 05:30:22;;;;;;;5.57;2.20;;;;;;;2.14;100.00;95962.59;5025628;28;20041;-57
2022/11/23 05:32:49;;;;;;;6.72;1.92;;;;;;;2.18;100.00;95961.06;5029177;28;20064;-63
2022/11/23 05:35:17;;;;;;;5.63;1.98;;;;;;;2.24;100.00;95967.34;5044422;28;20114;-57
2022/11/23 05:37:44;;;;;;;3.63;1.73;;;;;;;2.24;100.00;95959.34;5039960;28;20542;-57
2022/11/23 05:40:11;;;;;;;7.72;1.80;;;;;;;2.27;100.00;95970.34;5024396;28;20041;-57
2022/11/23 05:42:39;;;;;;;7.40;1.88;;;;;;;2.27;100.00;95966.84;5026074;28;20405;-58
2022/11/23 05:45:17;;;;;;;4.22;1.92;;;;;;;2.31;100.00;95957.31;5025319;28;20542;-54
2022/11/23 05:47:57;;;;;;;4.80;1.75;;;;;;;2.33;100.00;95957.94;5028897;28;20037;-57
2022/11/23 05:50:35;;;;;;;4.80;1.55;;;;;;;2.32;100.00;95962.44;5025275;28;20049;-58
2022/11/23 05:53:23;;;;;;;7.10;2.08;;;;;;;2.29;100.00;95964.78;5033384;28;20543;-58
2022/11/23 05:56:00;;;;;;;4.57;1.60;;;;;;;2.30;100.00;95955.72;5044305;28;20072;-58
2022/11/23 05:58:28;;;;;;;3.25;1.20;;;;;;;2.30;100.00;95961.88;5032765;28;20136;-59
2022/11/23 06:00:59;;;;;;;6.93;1.48;;;;;;;2.30;100.00;95961.06;5028426;28;20099;-58
2022/11/23 06:03:29;;;;;;;8.25;2.08;;;;;;;2.33;100.00;95955.25;5042632;28;20053;-55
2022/11/23 06:05:56;;;;;;;4.18;1.50;;;;;;;2.38;100.00;95967.88;5047436;28;20049;-57
2022/11/23 06:08:29;;;;;;;11.25;1.85;;;;;;;2.49;100.00;95967.06;5033335;28;20132;-57
2022/11/23 06:11:00;;;;;;;6.88;1.70;;;;;;;2.50;100.00;95962.53;5046002;28;20226;-57
2022/11/23 06:13:26;;;;;;;4.70;1.70;;;;;;;2.53;100.00;95965.56;5027277;28;20343;-58
2022/11/23 06:15:53;;;;;;;6.07;1.80;;;;;;;2.54;100.00;95969.06;5027524;28;20081;-59
2022/11/23 06:18:26;;;;;;;3.85;1.30;;;;;;;2.55;100.00;95960.78;5029405;28;20040;-56
2022/11/23 06:20:53;;;;;;;6.32;1.48;;;;;;;2.58;100.00;95973.66;5046356;28;20063;-56
2022/11/23 06:23:23;;;;;;;3.95;1.73;;;;;;;2.59;100.00;95971.81;5027751;28;20053;-58
2022/11/23 06:25:50;;;;;;;8.43;1.85;;;;;;;2.61;100.00;95967.03;5032558;28;20040;-56
2022/11/23 06:28:22;;;;;;;11.35;2.15;;;;;;;2.62;100.00;95973.22;5043541;28;20099;-58
2022/11/23 06:30:51;;;;;;;5.35;1.77;;;;;;;2.65;100.00;95965.53;5026921;28;20115;-58
2022/11/23 06:33:18;;;;;;;4.68;1.50;;;;;;;2.70;100.00;95968.28;5033561;28;20116;-58
2022/11/23 06:35:55;;;;;;;3.10;1.30;;;;;;;2.78;100.00;95963.63;5028552;28;20045;-58
2022/11/23 06:38:25;;;;;;;5.03;1.67;;;;;;;2.86;100.00;95965.94;5026998;28;20037;-58
2022/11/23 06:41:00;;;;;;;6.70;2.10;;;;;;;2.94;100.00;95962.88;5026800;28;20420;-60
2022/11/23 06:43:29;;;;;;;6.10;1.63;;;;;;;2.99;100.00;95959.50;5043393;28;20480;-57
2022/11/23 06:45:56;;;;;;;4.57;1.58;;;;;;;3.03;100.00;95968.69;5046531;28;20303;-59
2022/11/23 06:48:27;;;;;;;13.52;6.93;;;;;;;3.09;100.00;95970.41;5029953;28;20536;-56
2022/11/23 06:50:58;;;;;;;6.07;2.33;;;;;;;3.16;100.00;95972.91;5046199;28;20068;-59
2022/11/23 06:53:26;;;;;;;7.95;2.78;;;;;;;3.20;100.00;95970.56;5027737;28;20475;-59
2022/11/23 06:55:59;;;;;;;7.75;2.95;;;;;;;3.19;100.00;95964.44;5039352;28;20077;-59
2022/11/23 06:58:27;;;;;;;8.30;2.42;;;;;;;3.24;100.00;95967.19;5039640;28;20106;-58
2022/11/23 07:00:59;;;;;;;10.43;3.30;;;;;;;3.26;100.00;95972.31;5042692;28;20057;-59
2022/11/23 07:03:27;;;;;;;6.25;2.50;;;;;;;3.24;100.00;95975.22;5032424;28;20308;-58
2022/11/23 07:06:05;;;;;;;8.45;3.63;;;;;;;3.25;100.00;95973.38;5040367;28;20332;-58
2022/11/23 07:08:34;;;;;;;8.80;3.47;;;;;;;3.26;100.00;95980.34;5053121;28;20603;-59
2022/11/23 07:11:13;;;;;;;7.35;3.28;;;;;;;3.27;100.00;95981.16;5029326;28;20045;-59
2022/11/23 07:13:39;;;;;;;10.65;3.72;;;;;;;3.29;100.00;95974.50;5040851;28;20072;-58
2022/11/23 07:16:06;;;;;;;9.43;2.30;;;;;;;3.31;100.00;95974.28;5044171;28;20049;-59
2022/11/23 07:18:32;;;;;;;14.10;4.00;;;;;;;3.34;100.00;95979.13;5039303;28;20045;-58
2022/11/23 07:21:00;;;;;;;5.57;1.90;;;;;;;3.38;100.00;95983.75;5042576;28;20626;-58
2022/11/23 07:23:27;;;;;;;10.10;5.32;;;;;;;3.46;100.00;95982.56;5026816;28;20057;-57
2022/11/23 07:25:53;;;;;;;6.05;2.63;;;;;;;3.45;100.00;95988.97;5045956;28;20075;-58
2022/11/23 07:28:21;;;;;;;7.53;2.92;;;;;;;3.46;100.00;95984.44;5038496;28;20060;-60
2022/11/23 07:30:49;;;;;;;8.25;3.55;;;;;;;3.46;100.00;95982.56;5035769;28;20578;-57
2022/11/23 07:33:17;;;;;;;10.23;4.38;;;;;;;3.47;100.00;95986.84;5038102;28;20052;-59
2022/11/23 07:35:46;;;;;;;7.78;3.10;;;;;;;3.46;100.00;95987.91;5035931;28;20060;-59
2022/11/23 07:38:13;;;;;;;6.07;2.72;;;;;;;3.48;100.00;95991.16;5041170;28;20099;-58
2022/11/23 07:40:41;;;;;;;14.82;7.00;;;;;;;3.50;100.00;95983.69;5044699;28;20580;-58
2022/11/23 07:43:18;;;;;;;9.25;2.47;;;;;;;3.56;100.00;95994.50;5034951;28;20045;-58
2022/11/23 07:45:47;;;;;;;6.13;2.95;;;;;;;3.59;100.00;95996.69;5039583;28;20136;-59
2022/11/23 07:48:15;;;;;;;8.48;3.17;;;;;;;3.61;100.00;95997.28;5037403;28;20132;-59
2022/11/23 07:50:42;;;;;;;7.68;3.15;;;;;;;3.64;100.00;95997.59;5043265;28;20045;-57
2022/11/23 07:53:09;;;;;;;5.90;2.30;;;;;;;3.69;100.00;95998.75;5028640;28;20456;-57
2022/11/23 07:55:35;;;;;;;7.25;2.63;;;;;;;3.76;100.00;95997.53;5045127;28;20045;-57
2022/11/23 07:58:03;;;;;;;10.65;4.25;;;;;;;3.78;100.00;95997.28;5046837;28;20045;-57
2022/11/23 08:00:29;;;;;;;7.30;3.03;;;;;;;3.83;100.00;96000.03;5046424;28;20119;-59
2022/11/23 08:02:57;;;;;;;9.75;4.45;;;;;;;3.90;100.00;96008.72;5045918;28;20053;-59
2022/11/23 08:05:44;;;;;;;14.52;6.05;;;;;;;3.98;100.00;95998.69;5026792;28;20069;-59
2022/11/23 08:08:10;;;;;;;10.98;6.45;;;;;;;4.04;100.00;96000.38;5034369;28;20119;-58
2022/11/23 08:10:37;;;;;;;13.85;7.13;;;;;;;4.13;100.00;96000.78;5028845;28;20130;-59
2022/11/23 08:13:11;;;;;;;8.43;3.15;;;;;;;4.21;99.50;95999.56;5025608;28;20073;-59
2022/11/23 08:15:38;;;;;;;12.63;7.75;;;;;;;4.27;99.05;95996.69;5026863;28;20479;-58
2022/11/23 08:18:04;;;;;;;13.82;7.18;;;;;;;4.33;98.88;95989.56;5026440;28;20552;-58
2022/11/23 08:20:32;;;;;;;6.63;2.00;;;;;;;4.38;99.13;95994.16;5039129;28;20069;-58
2022/11/23 08:22:58;;;;;;;6.97;2.95;;;;;;;4.39;98.06;95999.28;5035131;28;20134;-59
2022/11/23 08:25:26;;;;;;;10.05;3.08;;;;;;;4.39;97.62;95996.59;5029728;28;20133;-59
2022/11/23 08:28:02;;;;;;;7.35;2.17;;;;;;;4.40;97.75;95994.75;5026114;28;20409;-57
2022/11/23 08:30:30;;;;;;;9.52;3.72;;;;;;;4.41;97.19;95994.50;5041638;28;20071;-55
2022/11/23 08:32:56;;;;;;;4.95;2.45;;;;;;;4.43;96.80;95997.72;5034312;28;20047;-59
2022/11/23 08:35:23;;;;;;;6.65;2.30;;;;;;;4.42;96.64;96003.34;5026182;28;20041;-58
2022/11/23 08:37:50;;;;;;;6.63;2.85;;;;;;;4.41;96.45;96005.22;5035493;28;20041;-57
2022/11/23 08:40:16;;;;;;;9.65;2.80;;;;;;;4.43;96.71;96004.97;5042963;28;20037;-58
2022/11/23 08:42:50;;;;;;;9.13;3.50;;;;;;;4.47;96.77;96006.09;5038711;28;20055;-58
2022/11/23 08:45:17;;;;;;;5.45;1.88;;;;;;;4.46;96.99;96001.00;5039296;28;20046;-59
2022/11/23 08:47:43;;;;;;;8.80;3.28;;;;;;;4.50;96.05;96002.91;5039855;28;20120;-56
2022/11/23 08:50:10;;;;;;;7.57;1.70;;;;;;;4.49;96.32;96005.88;5033730;28;20044;-57
2022/11/23 08:52:36;;;;;;;5.68;2.33;;;;;;;4.46;96.39;96009.03;5032194;28;20047;-58
2022/11/23 08:55:03;;;;;;;5.78;2.28;;;;;;;4.46;96.40;96001.78;5033876;28;20124;-59
2022/11/23 08:57:30;;;;;;;4.68;1.60;;;;;;;4.50;95.95;96002.91;5042852;28;20045;-58
2022/11/23 08:59:57;;;;;;;6.18;1.75;;;;;;;4.51;95.69;96006.41;5032668;28;20116;-58
2022/11/23 09:02:23;;;;;;;7.40;1.60;;;;;;;4.52;95.16;96000.81;5035595;28;20118;-57
2022/11/23 09:04:50;;;;;;;6.10;2.38;;;;;;;4.64;95.23;96010.63;5040728;28;20048;-59
2022/11/23 09:07:17;;;;;;;4.88;1.58;;;;;;;4.71;93.22;96013.13;5035798;28;20045;-59
2022/11/23 09:09:43;;;;;;;7.72;1.88;;;;;;;4.77;93.32;96006.75;5032629;28;20099;-59
2022/11/23 09:12:10;;;;;;;5.93;1.92;;;;;;;4.92;92.97;96008.81;5043169;28;20134;-57
2022/11/23 09:14:37;;;;;;;5.70;1.45;;;;;;;5.02;91.68;96000.09;5030085;28;20068;-59
2022/11/23 09:17:04;;;;;;;3.78;1.50;;;;;;;5.15;92.36;96002.41;5034576;28;20592;-57
2022/11/23 09:19:30;;;;;;;5.75;1.42;;;;;;;5.20;90.91;95994.41;5048853;28;20098;-59
2022/11/23 09:21:57;;;;;;;5.82;1.33;;;;;;;5.28;89.48;96003.06;5042349;28;20040;-59
2022/11/23 09:24:24;;;;;;;9.50;1.83;;;;;;;5.28;88.73;96005.75;5042462;28;20408;-59
2022/11/23 09:26:51;;;;;;;5.22;1.15;;;;;;;5.31;89.54;96000.69;5035001;28;20052;-59
2022/11/23 09:29:17;;;;;;;4.40;1.02;;;;;;;5.41;87.73;96001.84;5034236;28;20052;-56
2022/11/23 09:31:44;;;;;;;4.22;1.20;;;;;;;5.40;88.18;96000.25;5048313;28;20504;-58
2022/11/23 09:34:12;;;;;;;4.97;1.17;;;;;;;5.47;87.48;96000.84;5047706;28;20121;-59
2022/11/23 09:36:39;;;;;;;4.05;1.63;;;;;;;5.50;86.45;96004.91;5040043;28;20505;-60
2022/11/23 09:39:05;;;;;;;6.13;1.40;;;;;;;5.46;86.17;96002.72;5034433;28;20134;-59
2022/11/23 09:41:58;;;;;;;6.53;1.52;;;;;;;5.47;86.28;96001.69;5044615;28;20084;-58
2022/11/23 09:44:37;;;;;;;5.07;1.33;;;;;;;5.52;85.46;96003.59;5046843;28;20098;-56
2022/11/23 09:47:25;;;;;;;3.97;1.02;;;;;;;5.60;86.23;96008.50;5042188;28;20056;-58
2022/11/23 09:49:51;;;;;;;4.30;1.15;;;;;;;5.72;85.72;96004.84;5036515;28;20755;-57
2022/11/23 09:52:22;;;;;;;7.72;1.60;;;;;;;5.82;86.01;96004.94;5053696;28;20049;-58
2022/11/23 09:54:54;;;;;;;3.78;1.20;;;;;;;5.81;84.74;96003.31;5033270;28;20128;-58
2022/11/23 09:57:24;;;;;;;4.25;0.90;;;;;;;5.81;83.92;96003.31;5033663;28;20045;-58
2022/11/23 10:00:03;;;;;;;9.10;1.58;;;;;;;5.84;83.51;96002.00;5040421;28;20045;-57
2022/11/23 10:02:32;;;;;;;5.93;1.83;;;;;;;5.85;82.63;95995.56;5034661;28;20600;-57
2022/11/23 10:05:00;;;;;;;5.63;1.25;;;;;;;5.85;83.02;96004.44;5042233;28;20049;-58
2022/11/23 10:07:39;;;;;;;2.55;1.17;;;;;;;5.88;83.00;95997.75;5050954;28;20086;-59
2022/11/23 10:10:19;;;;;;;4.30;2.08;;;;;;;5.89;82.72;95999.34;5034213;28;20500;-57
2022/11/23 10:12:56;;;;;;;3.78;1.30;;;;;;;6.02;84.11;95995.44;5045498;28;20041;-57
2022/11/23 10:15:31;;;;;;;3.97;1.05;;;;;;;6.03;81.49;95990.88;5034310;28;20061;-59
2022/11/23 10:18:04;;;;;;;6.78;1.33;;;;;;;5.97;81.37;95984.66;5042144;28;20059;-59
2022/11/23 10:20:41;;;;;;;7.32;1.10;;;;;;;6.04;80.59;95987.16;5046303;28;20049;-59
2022/11/23 10:23:46;;;;;;;4.25;1.15;;;;;;;5.98;78.93;95997.03;5051364;28;20498;-57
2022/11/23 10:26:16;;;;;;;6.03;1.25;;;;;;;6.01;78.51;95991.13;5043905;28;20069;-59
2022/11/23 10:28:44;;;;;;;6.38;2.13;;;;;;;6.19;80.49;95998.00;5045859;28;20057;-57
2022/11/23 10:31:20;;;;;;;4.00;1.30;;;;;;;6.18;79.01;95987.50;5040875;28;20115;-57
2022/11/23 10:33:54;;;;;;;5.53;1.45;;;;;;;6.24;79.09;95983.81;5037725;28;20753;-59
2022/11/23 10:36:21;;;;;;;7.00;2.15;;;;;;;6.28;78.18;95989.47;5037518;28;20102;-59
2022/11/23 10:38:57;;;;;;;5.20;1.67;;;;;;;6.33;78.21;95986.81;5046692;28;20076;-59
2022/11/23 10:41:24;;;;;;;7.85;1.73;;;;;;;6.34;76.63;95985.75;5034282;28;20466;-58
2022/11/23 10:44:15;;;;;;;7.35;1.67;;;;;;;6.45;77.75;95975.88;5035429;28;20038;-59
2022/11/23 10:46:41;;;;;;;4.83;1.50;;;;;;;6.52;78.66;95981.03;5039079;28;20133;-57
2022/11/23 10:49:17;;;;;;;4.22;1.75;;;;;;;6.51;77.47;95977.50;5046708;28;20303;-58
2022/11/23 10:52:07;;;;;;;3.13;1.20;;;;;;;6.56;76.76;95966.78;5039989;28;20754;-59
2022/11/23 10:54:45;;;;;;;4.85;1.58;;;;;;;6.52;75.33;95976.44;5030958;28;20503;-59
2022/11/23 10:57:41;;;;;;;4.57;1.50;;;;;;;6.55;76.33;95975.94;5053216;28;20152;-60
2022/11/23 11:00:08;;;;;;;6.60;1.35;;;;;;;6.57;76.09;95976.50;5038832;28;20071;-59
2022/11/23 11:02:42;;;;;;;5.55;1.50;;;;;;;6.62;75.54;95976.50;5043718;28;20033;-59
2022/11/23 11:05:47;;;;;;;4.03;1.00;;;;;;;6.75;74.42;95969.84;5050232;28;20041;-59
2022/11/23 11:08:47;;;;;;;4.78;1.10;;;;;;;6.74;73.53;95965.53;5048898;28;20681;-59
2022/11/23 11:11:21;;;;;;;4.72;1.42;;;;;;;6.78;74.10;95965.81;5036288;28;20415;-56
2022/11/23 11:13:48;;;;;;;6.78;1.25;;;;;;;6.85;74.35;95950.25;5044933;28;20040;-59
2022/11/23 11:16:17;;;;;;;3.05;1.08;;;;;;;6.90;72.76;95958.31;5038168;28;20042;-58
2022/11/23 11:18:44;;;;;;;5.07;1.23;;;;;;;6.87;72.37;95963.44;5032354;28;20117;-57
2022/11/23 11:21:31;;;;;;;5.38;1.33;;;;;;;6.93;72.38;95953.50;5034391;28;20054;-59
2022/11/23 11:24:13;;;;;;;5.28;1.35;;;;;;;6.90;71.54;95958.31;5047495;28;20073;-59
2022/11/23 11:26:57;;;;;;;5.57;1.38;;;;;;;6.96;70.29;95955.69;5030438;28;20416;-59
2022/11/23 11:29:32;;;;;;;5.07;1.85;;;;;;;6.83;69.88;95947.03;5027556;28;20084;-60
2022/11/23 11:32:27;;;;;;;5.40;1.35;;;;;;;6.86;68.90;95951.84;5040863;28;20041;-59
2022/11/23 11:35:27;;;;;;;3.53;1.15;;;;;;;6.84;69.58;95951.31;5044809;28;20080;-59
2022/11/23 11:37:59;;;;;;;3.60;1.33;;;;;;;6.87;70.24;95941.91;5027365;28;20057;-59
2022/11/23 11:40:48;;;;;;;5.00;1.67;;;;;;;6.98;70.30;95938.19;5033162;28;20047;-57
2022/11/23 11:43:33;;;;;;;6.15;1.38;;;;;;;6.98;71.12;95929.31;5037330;28;20052;-59
2022/11/23 11:46:13;;;;;;;5.63;1.08;;;;;;;7.03;71.87;95932.00;5046676;28;20567;-59
2022/11/23 11:49:04;;;;;;;3.70;1.00;;;;;;;7.09;71.00;95924.75;5047448;28;20048;-59
2022/11/23 11:51:48;;;;;;;2.40;1.20;;;;;;;7.00;69.86;95925.28;5044928;28;20045;-59
2022/11/23 11:54:35;;;;;;;3.08;0.85;;;;;;;6.99;69.81;95912.91;5040171;28;20520;-59